• Join FlightAware (Why Join?)
  • Login
  • US Flag 
03:53AM EDT


 

Airport Tracker/Info


-or-


 

Live Flight TrackerFlight Track Log ✈ PDT4314 ✈ 17-Feb-2014 ✈ KBGM - KPHL

Flight Track Log - Related Links

Times and Time Zones

All times are in EST time to prevent confusion due to time zone crossing. See the PDT4314 flight status page for this flight to view local times or setup timezone preferences in your user account.

Time Position Orientation Groundspeed Altitude Reporting Facility
EST Latitude Longitude Course Direction KTS MPH feet Rate Location/Type
07:02PM 41.9875 -75.9074 180° South  Level Estimated
07:03PM 41.9308 -75.9136 185° South  Level FlightAware Approximate
07:04PM 41.8741 -75.9198 185° South  Level FlightAware Approximate
07:05PM 42.1476 -75.9734 176° South  Level FlightAware Approximate
07:06PM 42.0884 -75.9537 154° Southeast  Level Estimated
07:07PM 42.0292 -75.9340 160° South  Level Estimated
07:08PM 41.9699 -75.9143 159° South  Level Estimated
07:09PM 41.9099 -75.8996 170° South  Level FlightAware Approximate
07:10PM 41.8499 -75.8849 170° South  Level FlightAware Approximate
07:11PM 41.7907 -75.8651 153° Southeast  Level Estimated
07:12PM 41.7315 -75.8453 161° South  Level Estimated
07:13PM 41.6725 -75.8246 165° South  Level FlightAware Approximate
07:14PM 41.6135 -75.8039 165° South  Level FlightAware Approximate
07:15PM 41.5543 -75.7843 162° South  Level Estimated
07:16PM 41.4958 -75.7611 163° South  Level FlightAware Approximate
07:17PM 41.4373 -75.7380 164° South  Level FlightAware Approximate
07:18PM 41.3788 -75.7150 164° South  Level FlightAware Approximate
07:19PM 41.3195 -75.6959 159° South  Level Estimated
07:20PM 41.2602 -75.6768 163° South  Level Estimated
07:21PM 41.2020 -75.6524 162° South  Level FlightAware Approximate
07:22PM 41.1439 -75.6280 162° South  Level FlightAware Approximate
07:23PM 41.0857 -75.6036 162° South  Level FlightAware Approximate
07:24PM 41.0262 -75.5855 190° South  Level Estimated
07:25PM 40.9657 -75.5756 173° South  Level FlightAware Approximate
07:26PM 40.9052 -75.5657 173° South  Level FlightAware Approximate
07:26PM 40.6500 -75.4667 184° South 237 273 7,400  Level Philadelphia TRACON
07:27PM 40.8446 -75.5558 173° South  Level FlightAware Approximate
07:27PM 40.5667 -75.5000 197° South 248 285 6,400  Level Philadelphia TRACON
07:28PM 40.7854 -75.5364 187° South  Level Estimated
07:28PM 40.5000 -75.4667 159° South 233 268 5,700  Level Philadelphia TRACON
07:29PM 40.7244 -75.5332 178° South  Level FlightAware Approximate
07:29PM 40.4500 -75.4167 143° Southeast 227 261 5,100  Level Philadelphia TRACON
07:30PM 40.6655 -75.5127 190° South  Level Estimated
07:30PM 40.4000 -75.3833 153° Southeast 223 257 5,000  Level Philadelphia TRACON
07:31PM 40.6046 -75.5182 184° South  Level FlightAware Approximate
07:31PM 40.3500 -75.3333 143° Southeast 217 250 5,000  Level Philadelphia TRACON
07:32PM 40.2833 -75.2833 150° Southeast 230 265 4,100 -480 Descending Philadelphia TRACON
07:33PM 40.2333 -75.2500 153° Southeast 223 257 4,000 -60 Descending Philadelphia TRACON
07:34PM 40.1833 -75.2000 143° Southeast 212 244 4,000  Level Philadelphia TRACON
07:35PM 40.1333 -75.1667 153° Southeast 204 235 4,000  Level Philadelphia TRACON
07:36PM 40.1000 -75.1333 143° Southeast 190 219 4,000  Level Philadelphia TRACON
07:37PM 40.0500 -75.1000 153° Southeast 193 222 4,000  Level Philadelphia TRACON
07:38PM 40.0000 -75.0500 143° Southeast 192 221 4,000  Level Philadelphia TRACON
07:39PM 40.0000 -74.9833 90° East 195 224 4,000 -180 Level Philadelphia TRACON
07:40PM 39.9500 -75.0167 207° Southwest 199 229 3,700 -780 Descending Philadelphia TRACON
07:41PM 39.9333 -75.0833 252° West 175 201 2,500 -1,080 Descending Philadelphia TRACON
07:42PM 39.9000 -75.1333 229° Southwest 171 197 1,600 -900 Descending Philadelphia TRACON
07:43PM 39.9000 -75.1667 270° West 112 129 800 -780 Descending Philadelphia TRACON
07:44PM 39.8833 -75.2000 237° Southwest 113 130 200 -720 Descending Philadelphia TRACON